This is the latest recevied weather packets stored in our database for station/object N7AWM. If no packets are shown the sender has not sent any weather packets the latest 10 day(s).
| Time | Temp. | Humidity | Pressure | Rain* | Wind** | Luminosity | Snow |
|---|---|---|---|---|---|---|---|
| 1777472797 | 8.89° C | 64% | 1020.9 hPa | 0 mm | - | - | - |
| 1777472684 | 8.89° C | 64% | 1020.9 hPa | 0 mm | - | - | - |
| 1777471844 | 7.78° C | 69% | 1020.8 hPa | 0 mm | - | - | - |
| 1777471004 | 6.67° C | 71% | 1020.6 hPa | 0 mm | - | - | - |
| 1777470164 | 5.56° C | 74% | 1020.4 hPa | 0 mm | - | - | - |
| 1777469325 | 4.44° C | 78% | 1020.2 hPa | 0 mm | - | - | - |
| 1777468485 | 3.89° C | 78% | 1020 hPa | 0 mm | - | - | - |
| 1777467645 | 3.89° C | 77% | 1019.8 hPa | 0 mm | - | - | - |
| 1777466805 | 4.44° C | 77% | 1019.7 hPa | 0 mm | - | - | - |
| 1777465965 | 5° C | 73% | 1019.6 hPa | 0 mm | - | - | - |
| 1777465125 | 6.11° C | 71% | 1019.4 hPa | 0 mm | - | - | - |
| 1777464285 | 7.22° C | 68% | 1019.4 hPa | 0 mm | - | - | - |
| 1777463445 | 7.78° C | 66% | 1019.4 hPa | 0 mm | - | - | - |
| 1777462605 | 7.22° C | 67% | 1019.2 hPa | 0 mm | - | - | - |
| 1777461765 | 7.78° C | 64% | 1019.2 hPa | 0 mm | - | - | - |
| 1777460925 | 8.33° C | 61% | 1018.9 hPa | 0 mm | - | - | - |
| 1777460085 | 8.33° C | 62% | 1018.9 hPa | 0 mm | - | - | - |
| 1777459245 | 7.78° C | 65% | 1018.7 hPa | 0 mm | - | - | - |
| 1777458405 | 7.78° C | 65% | 1018.5 hPa | 0 mm | - | - | - |
| 1777457566 | 8.33° C | 63% | 1018.5 hPa | 0 mm | - | - | - |
| 1777456726 | 8.89° C | 61% | 1018.6 hPa | 0 mm | - | - | - |
| 1777455886 | 8.89° C | 61% | 1018.3 hPa | 0 mm | - | - | - |
| 1777455046 | 8.89° C | 61% | 1018.3 hPa | 0 mm | - | - | - |
| 1777454206 | 8.89° C | 62% | 1018.4 hPa | 0 mm | - | - | - |
| 1777453366 | 8.89° C | 62% | 1018.3 hPa | 0 mm | - | - | - |
* Rain latest hour (hover to see other rain measurements)
** Current wind speed in m/s (hover to see current wind gust speed)